createdAt,value
2018-12-26T00:02:06.364Z,1.55
2018-12-26T00:04:37.206Z,1.51
2018-12-26T00:07:07.998Z,1.49
2018-12-26T00:09:38.799Z,1.49
2018-12-26T00:12:09.310Z,1.52
2018-12-26T00:14:39.879Z,1.54
2018-12-26T00:17:10.271Z,1.56
2018-12-26T00:19:40.858Z,1.50
2018-12-26T00:22:11.570Z,1.51
2018-12-26T00:24:42.646Z,1.49
2018-12-26T00:27:12.948Z,1.49
2018-12-26T00:29:43.897Z,1.52
2018-12-26T00:32:14.556Z,1.51
2018-12-26T00:34:44.939Z,1.49
2018-12-26T00:37:15.529Z,1.45
2018-12-26T00:39:47.966Z,1.47
2018-12-26T00:42:18.108Z,1.49
2018-12-26T00:44:48.454Z,1.54
2018-12-26T00:47:18.756Z,1.54
2018-12-26T00:49:49.317Z,1.52
2018-12-26T00:52:19.798Z,1.50
2018-12-26T00:54:50.362Z,1.53
2018-12-26T00:57:20.803Z,1.52
2018-12-26T00:59:51.003Z,1.52
2018-12-26T01:02:21.952Z,1.49
2018-12-26T01:04:52.801Z,1.52
2018-12-26T01:07:23.284Z,1.52
2018-12-26T01:09:54.332Z,1.50
2018-12-26T01:12:24.912Z,1.52
2018-12-26T01:14:55.999Z,1.49
2018-12-26T01:17:26.386Z,1.46
2018-12-26T01:19:56.816Z,1.46
2018-12-26T01:22:27.203Z,1.46
2018-12-26T01:24:58.221Z,1.43
2018-12-26T01:27:28.669Z,1.43
2018-12-26T01:29:59.010Z,1.45
2018-12-26T01:32:29.473Z,1.45
2018-12-26T01:34:59.889Z,1.41
2018-12-26T01:37:30.549Z,1.44
2018-12-26T01:40:01.224Z,1.44
2018-12-26T01:42:31.733Z,1.44
2018-12-26T01:45:02.490Z,1.42
2018-12-26T01:47:33.168Z,1.41
2018-12-26T01:50:03.888Z,1.38
2018-12-26T01:52:34.236Z,1.37
2018-12-26T01:55:05.224Z,1.37
2018-12-26T01:57:35.875Z,1.35
2018-12-26T02:00:06.761Z,1.36
2018-12-26T02:02:37.351Z,1.31
2018-12-26T02:05:07.837Z,1.32
2018-12-26T02:07:38.538Z,1.28
2018-12-26T02:10:09.581Z,1.28
2018-12-26T02:12:40.362Z,1.31
2018-12-26T02:15:11.121Z,1.27
2018-12-26T02:17:41.864Z,1.28
2018-12-26T02:20:12.365Z,1.33
2018-12-26T02:22:43.203Z,1.28
2018-12-26T02:25:13.569Z,1.26
2018-12-26T02:27:44.157Z,1.22
2018-12-26T02:30:14.591Z,1.22
2018-12-26T02:32:45.512Z,1.20
2018-12-26T02:35:16.073Z,1.19
2018-12-26T02:37:46.562Z,1.16
2018-12-26T02:40:17.000Z,1.14
2018-12-26T02:42:47.481Z,1.12
2018-12-26T02:45:18.219Z,1.10
2018-12-26T02:47:48.639Z,1.12
2018-12-26T02:50:19.204Z,1.07
2018-12-26T02:52:49.543Z,1.06
2018-12-26T02:55:19.840Z,1.09
2018-12-26T02:57:50.354Z,1.02
2018-12-26T03:00:20.834Z,1.03
2018-12-26T03:02:51.240Z,1.03
2018-12-26T03:05:21.616Z,1.03
2018-12-26T03:07:52.515Z,1.02
2018-12-26T03:10:23.023Z,0.99
2018-12-26T03:12:53.567Z,1.02
2018-12-26T03:15:24.148Z,1.09
2018-12-26T03:17:54.996Z,1.06
2018-12-26T03:20:25.467Z,1.05
2018-12-26T03:22:55.910Z,1.01
2018-12-26T03:25:26.952Z,1.05
2018-12-26T03:27:58.086Z,1.03
2018-12-26T03:30:29.086Z,1.10
2018-12-26T03:32:59.424Z,1.12
2018-12-26T03:35:29.803Z,1.13
2018-12-26T03:38:00.523Z,1.11
2018-12-26T03:40:31.452Z,1.20
2018-12-26T03:43:02.117Z,1.18
2018-12-26T03:45:33.347Z,1.14
2018-12-26T03:48:04.720Z,1.16
2018-12-26T03:50:35.429Z,1.21
2018-12-26T03:53:05.846Z,1.19
2018-12-26T03:55:36.434Z,1.19
2018-12-26T03:58:07.475Z,1.13
2018-12-26T04:00:38.168Z,1.12
2018-12-26T04:03:08.588Z,1.07
2018-12-26T04:05:39.363Z,1.06
2018-12-26T04:08:10.004Z,1.13
2018-12-26T04:10:40.422Z,1.13
2018-12-26T04:13:11.066Z,1.05
2018-12-26T04:15:41.512Z,1.00
2018-12-26T04:18:12.357Z,1.06
2018-12-26T04:20:42.984Z,1.02
2018-12-26T04:23:13.411Z,1.04
2018-12-26T04:25:44.104Z,1.05
2018-12-26T04:28:14.808Z,1.09
2018-12-26T04:30:45.285Z,1.08
2018-12-26T04:33:15.605Z,1.08
2018-12-26T04:35:46.126Z,1.08
2018-12-26T04:38:16.727Z,1.03
2018-12-26T04:40:47.022Z,1.04
2018-12-26T04:43:17.452Z,0.98
2018-12-26T04:45:47.745Z,1.00
2018-12-26T04:48:18.308Z,0.97
2018-12-26T04:50:48.708Z,1.00
2018-12-26T04:53:19.372Z,0.97
2018-12-26T04:55:50.390Z,0.93
2018-12-26T04:58:21.062Z,0.94
2018-12-26T05:00:51.632Z,0.90
2018-12-26T05:03:21.996Z,0.92
2018-12-26T05:05:52.415Z,0.89
2018-12-26T05:08:22.769Z,0.94
2018-12-26T05:10:53.040Z,0.93
2018-12-26T05:13:23.445Z,1.00
2018-12-26T05:15:53.893Z,0.96
2018-12-26T05:18:25.207Z,0.95
2018-12-26T05:20:55.667Z,0.94
2018-12-26T05:23:26.396Z,0.96
2018-12-26T05:25:56.999Z,0.98
2018-12-26T05:28:27.708Z,1.02
2018-12-26T05:30:57.974Z,1.03
2018-12-26T05:33:28.767Z,1.00
2018-12-26T05:35:59.160Z,1.03
2018-12-26T05:38:29.611Z,0.97
2018-12-26T05:40:59.934Z,1.01
2018-12-26T05:43:30.498Z,1.03
2018-12-26T05:46:01.153Z,1.09
2018-12-26T05:48:31.569Z,1.12
2018-12-26T05:51:02.046Z,1.10
2018-12-26T05:53:32.285Z,1.19
2018-12-26T05:56:02.676Z,1.29
2018-12-26T05:58:33.215Z,1.22
2018-12-26T06:01:03.512Z,1.31
2018-12-26T06:03:34.044Z,1.33
2018-12-26T06:06:04.518Z,1.30
2018-12-26T06:08:35.546Z,1.34
2018-12-26T06:11:05.910Z,1.40
2018-12-26T06:13:36.213Z,1.45
2018-12-26T06:16:06.779Z,1.47
2018-12-26T06:18:37.053Z,1.50
2018-12-26T06:21:07.737Z,1.49
2018-12-26T06:23:38.005Z,1.54
2018-12-26T06:26:08.382Z,1.59
2018-12-26T06:28:39.071Z,1.61
2018-12-26T06:31:09.343Z,1.66
2018-12-26T06:33:39.639Z,1.65
2018-12-26T06:36:10.096Z,1.72
2018-12-26T06:38:40.517Z,1.70
2018-12-26T06:41:11.208Z,1.68
2018-12-26T06:43:41.844Z,1.70
2018-12-26T06:46:12.495Z,1.66
2018-12-26T06:48:42.830Z,1.63
2018-12-26T06:51:13.616Z,1.63
2018-12-26T06:53:43.974Z,1.68
2018-12-26T06:56:14.327Z,1.64
2018-12-26T06:58:45.353Z,1.59
2018-12-26T07:01:15.643Z,1.57
2018-12-26T07:03:46.094Z,1.49
2018-12-26T07:06:17.690Z,1.47
2018-12-26T07:08:48.395Z,1.42
2018-12-26T07:11:19.044Z,1.43
2018-12-26T07:13:49.532Z,1.33
2018-12-26T07:16:19.826Z,1.26
2018-12-26T07:18:50.685Z,1.26
2018-12-26T07:21:20.882Z,1.19
2018-12-26T07:23:51.457Z,1.19
2018-12-26T07:26:22.105Z,1.21
2018-12-26T07:28:52.399Z,1.18
2018-12-26T07:31:22.718Z,1.16
2018-12-26T07:33:53.094Z,1.26
2018-12-26T07:36:23.747Z,1.33
2018-12-26T07:38:54.037Z,1.42
2018-12-26T07:41:24.644Z,1.42
2018-12-26T07:43:55.128Z,1.45
2018-12-26T07:46:25.743Z,1.47
2018-12-26T07:48:56.146Z,1.48
2018-12-26T07:51:26.540Z,1.49
2018-12-26T07:53:56.835Z,1.56
2018-12-26T07:56:31.169Z,1.63
2018-12-26T07:59:01.821Z,1.66
2018-12-26T08:01:32.354Z,1.67
2018-12-26T08:04:03.111Z,1.67
2018-12-26T08:06:33.523Z,1.72
2018-12-26T08:09:05.163Z,1.72
2018-12-26T08:11:35.569Z,1.76
2018-12-26T08:14:05.978Z,1.82
2018-12-26T08:16:36.623Z,1.94
2018-12-26T08:19:07.087Z,2.10
2018-12-26T08:21:38.039Z,2.29
2018-12-26T08:24:08.395Z,2.43
2018-12-26T08:26:38.699Z,2.59
2018-12-26T08:29:09.286Z,2.71
2018-12-26T08:31:40.002Z,2.96
2018-12-26T08:34:10.299Z,3.25
2018-12-26T08:36:40.642Z,3.46
2018-12-26T08:39:11.032Z,3.10
2018-12-26T08:41:42.911Z,3.21
2018-12-26T08:44:13.367Z,3.51
2018-12-26T08:46:43.945Z,3.59
2018-12-26T08:49:14.220Z,3.41
2018-12-26T08:51:45.097Z,3.83
2018-12-26T08:54:15.449Z,4.30
2018-12-26T08:56:46.099Z,4.46
2018-12-26T08:59:16.341Z,4.26
2018-12-26T09:01:46.588Z,4.21
2018-12-26T09:04:17.011Z,3.79
2018-12-26T09:06:47.286Z,3.83
2018-12-26T09:09:17.957Z,3.58
2018-12-26T09:11:48.278Z,3.81
2018-12-26T09:14:18.628Z,3.51
2018-12-26T09:16:49.014Z,3.58
2018-12-26T09:19:19.387Z,3.34
2018-12-26T09:21:49.749Z,3.21
2018-12-26T09:24:19.963Z,3.43
2018-12-26T09:26:50.452Z,3.46
2018-12-26T09:29:20.823Z,3.50
2018-12-26T09:31:51.272Z,3.52
2018-12-26T09:34:21.748Z,3.57
2018-12-26T09:36:52.186Z,3.22
2018-12-26T09:39:22.519Z,3.30
2018-12-26T09:41:52.914Z,3.39
2018-12-26T09:44:23.306Z,3.31
2018-12-26T09:46:55.846Z,3.38
2018-12-26T09:49:26.196Z,3.36
2018-12-26T09:51:56.946Z,3.57
2018-12-26T09:54:28.429Z,3.37
2018-12-26T09:56:58.737Z,3.72
2018-12-26T09:59:29.060Z,3.47
2018-12-26T10:01:59.335Z,3.17
2018-12-26T10:04:29.948Z,3.10
2018-12-26T10:07:00.317Z,3.33
2018-12-26T10:09:30.821Z,3.22
2018-12-26T10:12:01.122Z,3.25
2018-12-26T10:14:31.836Z,3.37
2018-12-26T10:17:02.423Z,3.35
2018-12-26T10:19:32.832Z,3.34
2018-12-26T10:22:03.517Z,3.45
2018-12-26T10:24:33.888Z,3.45
2018-12-26T10:27:04.592Z,3.49
2018-12-26T10:29:35.528Z,3.29
2018-12-26T10:32:06.181Z,3.62
2018-12-26T10:34:36.403Z,3.54
2018-12-26T10:37:06.746Z,3.38
2018-12-26T10:39:37.105Z,3.49
2018-12-26T10:42:07.636Z,3.57
2018-12-26T10:44:38.243Z,3.60
2018-12-26T10:47:08.592Z,3.74
2018-12-26T10:49:38.884Z,3.97
2018-12-26T10:52:09.248Z,3.94
2018-12-26T10:54:39.869Z,4.02
2018-12-26T10:57:10.259Z,3.83
2018-12-26T10:59:40.890Z,4.03
2018-12-26T11:02:11.268Z,3.82
2018-12-26T11:04:41.679Z,4.08
2018-12-26T11:07:12.303Z,4.00
2018-12-26T11:09:42.672Z,4.01
2018-12-26T11:12:13.036Z,4.20
2018-12-26T11:14:43.599Z,4.29
2018-12-26T11:17:14.073Z,4.37
2018-12-26T11:19:44.598Z,4.43
2018-12-26T11:22:15.293Z,4.55
2018-12-26T11:24:46.815Z,4.33
2018-12-26T11:27:17.196Z,4.64
2018-12-26T11:29:47.868Z,4.71
2018-12-26T11:32:18.542Z,4.80
2018-12-26T11:34:49.265Z,4.95
2018-12-26T11:37:19.962Z,5.10
2018-12-26T11:39:51.540Z,5.10
2018-12-26T11:42:22.034Z,4.91
2018-12-26T11:44:52.592Z,5.06
2018-12-26T11:47:25.668Z,5.32
2018-12-26T11:49:56.273Z,5.22
2018-12-26T11:52:26.877Z,5.40
2018-12-26T11:54:57.420Z,5.34
2018-12-26T11:57:27.896Z,5.36
2018-12-26T11:59:58.393Z,5.42
2018-12-26T12:02:29.541Z,5.52
2018-12-26T12:04:59.910Z,5.70
2018-12-26T12:07:30.510Z,5.73
2018-12-26T12:10:01.013Z,5.87
2018-12-26T12:12:31.504Z,5.84
2018-12-26T12:15:02.619Z,5.73
2018-12-26T12:17:33.068Z,5.71
2018-12-26T12:20:03.685Z,5.90
2018-12-26T12:22:34.287Z,5.90
2018-12-26T12:25:04.797Z,5.99
2018-12-26T12:27:35.353Z,5.97
2018-12-26T12:30:06.416Z,5.91
2018-12-26T12:32:37.566Z,6.12
2018-12-26T12:35:08.546Z,6.02
2018-12-26T12:37:39.150Z,6.12
2018-12-26T12:40:11.752Z,6.28
2018-12-26T12:42:42.182Z,6.52
2018-12-26T12:45:12.638Z,6.80
2018-12-26T12:47:43.073Z,6.92
2018-12-26T12:50:13.564Z,7.16
2018-12-26T12:52:44.347Z,7.31
2018-12-26T12:55:15.219Z,7.33
2018-12-26T12:57:46.032Z,7.49
2018-12-26T13:00:17.151Z,7.53
2018-12-26T13:02:47.619Z,7.87
2018-12-26T13:05:18.140Z,7.64
2018-12-26T13:07:49.271Z,7.33
2018-12-26T13:10:19.532Z,7.40
2018-12-26T13:12:50.061Z,7.80
2018-12-26T13:15:20.481Z,7.67
2018-12-26T13:17:50.947Z,7.68
2018-12-26T13:20:21.600Z,7.65
2018-12-26T13:22:52.181Z,7.59
2018-12-26T13:25:22.895Z,7.65
2018-12-26T13:27:53.315Z,7.54
2018-12-26T13:30:23.999Z,7.57
2018-12-26T13:32:54.482Z,7.25
2018-12-26T13:35:25.188Z,7.24
2018-12-26T13:37:55.616Z,7.08
2018-12-26T13:40:26.297Z,6.90
2018-12-26T13:42:56.659Z,6.74
2018-12-26T13:45:27.010Z,6.79
2018-12-26T13:47:57.766Z,6.72
2018-12-26T13:50:28.319Z,6.64
2018-12-26T13:52:58.689Z,6.55
2018-12-26T13:55:29.280Z,6.52
2018-12-26T13:57:59.918Z,6.43
2018-12-26T14:00:30.318Z,6.34
2018-12-26T14:03:00.794Z,6.26
2018-12-26T14:05:32.031Z,6.03
2018-12-26T14:08:02.349Z,6.23
2018-12-26T14:10:32.795Z,6.19
2018-12-26T14:13:03.435Z,6.03
2018-12-26T14:15:33.891Z,6.03
2018-12-26T14:18:04.782Z,6.15
2018-12-26T14:20:35.167Z,6.15
2018-12-26T14:23:05.836Z,6.16
2018-12-26T14:25:36.290Z,6.07
2018-12-26T14:28:06.672Z,6.02
2018-12-26T14:30:37.099Z,6.04
2018-12-26T14:33:07.790Z,5.92
2018-12-26T14:35:38.200Z,5.92
2018-12-26T14:38:08.474Z,5.86
2018-12-26T14:40:38.939Z,5.76
2018-12-26T14:43:09.401Z,5.66
2018-12-26T14:45:39.682Z,5.59
2018-12-26T14:48:10.099Z,5.62
2018-12-26T14:50:40.436Z,5.52
2018-12-26T14:53:10.710Z,5.47
2018-12-26T14:55:41.022Z,5.42
2018-12-26T14:58:11.249Z,5.41
2018-12-26T15:00:43.235Z,5.32
2018-12-26T15:03:13.621Z,5.20
2018-12-26T15:05:44.235Z,5.20
2018-12-26T15:08:15.174Z,5.17
2018-12-26T15:10:45.648Z,5.15
2018-12-26T15:13:16.236Z,5.06
2018-12-26T15:15:47.066Z,5.10
2018-12-26T15:18:18.398Z,5.00
2018-12-26T15:20:49.039Z,4.99
2018-12-26T15:23:19.512Z,4.93
2018-12-26T15:25:49.932Z,4.87
2018-12-26T15:28:20.486Z,4.82
2018-12-26T15:30:51.221Z,4.85
2018-12-26T15:33:21.709Z,4.79
2018-12-26T15:35:52.119Z,4.76
2018-12-26T15:38:22.677Z,4.72
2018-12-26T15:40:53.186Z,4.68
2018-12-26T15:43:23.639Z,4.69
2018-12-26T15:45:54.318Z,4.66
2018-12-26T15:48:24.675Z,4.60
2018-12-26T15:50:55.088Z,4.57
2018-12-26T15:53:25.564Z,4.56
2018-12-26T15:55:56.040Z,4.54
2018-12-26T15:58:26.455Z,4.56
2018-12-26T16:00:57.101Z,4.54
2018-12-26T16:03:27.554Z,4.52
2018-12-26T16:05:58.177Z,4.46
2018-12-26T16:08:29.641Z,4.47
2018-12-26T16:11:02.667Z,4.42
2018-12-26T16:13:33.026Z,4.47
2018-12-26T16:16:03.397Z,4.40
2018-12-26T16:18:33.715Z,4.37
2018-12-26T16:21:04.646Z,4.33
2018-12-26T16:23:35.312Z,4.36
2018-12-26T16:26:05.791Z,4.33
2018-12-26T16:28:36.139Z,4.32
2018-12-26T16:31:06.428Z,4.30
2018-12-26T16:33:36.748Z,4.28
2018-12-26T16:36:07.347Z,4.33
2018-12-26T16:38:38.052Z,4.28
2018-12-26T16:41:08.723Z,4.24
2018-12-26T16:43:39.338Z,4.29
2018-12-26T16:46:09.844Z,4.25
2018-12-26T16:48:40.282Z,4.21
2018-12-26T16:51:10.713Z,4.23
2018-12-26T16:53:41.339Z,4.23
2018-12-26T16:56:11.717Z,4.22
2018-12-26T16:58:42.075Z,4.27
2018-12-26T17:01:12.438Z,4.17
2018-12-26T17:03:42.825Z,4.16
2018-12-26T17:06:13.336Z,4.16
2018-12-26T17:08:43.668Z,4.17
2018-12-26T17:11:14.080Z,4.10
2018-12-26T17:13:44.528Z,4.10
2018-12-26T17:16:15.299Z,4.13
2018-12-26T17:18:46.035Z,4.13
2018-12-26T17:21:16.506Z,4.14
2018-12-26T17:23:47.214Z,4.10
2018-12-26T17:26:17.701Z,4.05
2018-12-26T17:29:01.685Z,4.10
2018-12-26T17:31:32.335Z,4.05
2018-12-26T17:34:03.323Z,4.00
2018-12-26T17:36:34.043Z,3.96
2018-12-26T17:39:06.526Z,3.97
2018-12-26T17:41:37.184Z,3.98
2018-12-26T17:44:07.924Z,3.92
2018-12-26T17:46:38.141Z,3.95
2018-12-26T17:49:08.425Z,3.90
2018-12-26T17:51:39.257Z,3.96
2018-12-26T17:54:49.057Z,3.89
2018-12-26T17:57:40.661Z,3.81
2018-12-26T18:00:44.264Z,3.84
2018-12-26T18:03:14.665Z,3.81
2018-12-26T18:05:45.744Z,3.85
2018-12-26T18:08:16.150Z,3.84
2018-12-26T18:10:46.976Z,3.83
2018-12-26T18:13:17.221Z,3.78
2018-12-26T18:15:47.899Z,3.79
2018-12-26T18:18:21.953Z,3.86
2018-12-26T18:20:53.082Z,3.85
2018-12-26T18:23:24.207Z,3.81
2018-12-26T18:25:55.383Z,3.82
2018-12-26T18:28:29.164Z,3.92
2018-12-26T18:30:59.620Z,3.85
2018-12-26T18:33:30.489Z,3.85
2018-12-26T18:36:04.666Z,3.91
2018-12-26T18:38:36.192Z,3.90
2018-12-26T18:41:06.620Z,3.88
2018-12-26T18:43:37.188Z,3.90
2018-12-26T18:46:07.903Z,3.83
2018-12-26T18:48:38.655Z,3.84
2018-12-26T18:51:09.277Z,3.86
2018-12-26T18:53:44.157Z,3.77
2018-12-26T18:56:17.580Z,3.76
2018-12-26T18:58:48.496Z,3.77
2018-12-26T19:01:18.976Z,3.80
2018-12-26T19:03:52.692Z,3.74
2018-12-26T19:06:23.042Z,3.80
2018-12-26T19:08:53.274Z,3.74
2018-12-26T19:11:24.368Z,3.72
2018-12-26T19:13:54.862Z,3.65
2018-12-26T19:16:25.481Z,3.63
2018-12-26T19:18:56.224Z,3.62
2018-12-26T19:21:29.679Z,3.63
2018-12-26T19:24:01.678Z,3.58
2018-12-26T19:26:32.175Z,3.59
2018-12-26T19:29:03.412Z,3.63
2018-12-26T19:31:39.522Z,3.62
2018-12-26T19:34:06.815Z,3.51
2018-12-26T19:36:37.200Z,3.49
2018-12-26T19:39:09.067Z,3.57
2018-12-26T19:41:39.488Z,3.53
2018-12-26T19:44:10.035Z,3.54
2018-12-26T19:46:40.504Z,3.52
2018-12-26T19:49:11.341Z,3.50
2018-12-26T19:51:41.786Z,3.49
2018-12-26T19:54:12.518Z,3.55
2018-12-26T19:56:43.223Z,3.48
2018-12-26T19:59:13.807Z,3.46
2018-12-26T20:01:48.338Z,3.49
2018-12-26T20:04:16.671Z,3.47
2018-12-26T20:06:47.268Z,3.39
2018-12-26T20:09:17.789Z,3.38
2018-12-26T20:11:48.318Z,3.49
2018-12-26T20:14:18.991Z,3.46
2018-12-26T20:16:49.574Z,3.44
2018-12-26T20:19:20.229Z,3.43
2018-12-26T20:21:51.904Z,3.42
2018-12-26T20:24:22.390Z,3.40
2018-12-26T20:26:53.015Z,3.44
2018-12-26T20:29:23.548Z,3.44
2018-12-26T20:31:56.968Z,3.44
2018-12-26T20:34:26.661Z,3.50
2018-12-26T20:36:57.391Z,3.50
2018-12-26T20:39:28.193Z,3.54
2018-12-26T20:41:59.066Z,3.46
2018-12-26T20:44:29.575Z,3.47
2018-12-26T20:47:00.234Z,3.54
2018-12-26T20:49:30.681Z,3.54
2018-12-26T20:52:01.190Z,3.52
2018-12-26T20:54:31.838Z,3.54
2018-12-26T20:57:02.929Z,3.53
2018-12-26T20:59:33.458Z,3.50
2018-12-26T21:02:05.767Z,3.56
2018-12-26T21:04:36.784Z,3.61
2018-12-26T21:07:07.566Z,3.60
2018-12-26T21:09:38.110Z,3.58
2018-12-26T21:12:08.754Z,3.52
2018-12-26T21:14:39.292Z,3.54
2018-12-26T21:17:10.068Z,3.57
2018-12-26T21:19:40.815Z,3.53
2018-12-26T21:22:11.334Z,3.55
2018-12-26T21:24:42.076Z,3.58
2018-12-26T21:27:12.966Z,3.59
2018-12-26T21:29:43.504Z,3.53
2018-12-26T21:32:14.526Z,3.49
2018-12-26T21:34:45.005Z,3.48
2018-12-26T21:37:15.768Z,3.53
2018-12-26T21:39:46.268Z,3.46
2018-12-26T21:42:16.711Z,3.44
2018-12-26T21:44:47.589Z,3.46
2018-12-26T21:47:18.180Z,3.41
2018-12-26T21:49:48.525Z,3.41
2018-12-26T21:52:19.202Z,3.40
2018-12-26T21:54:49.669Z,3.39
2018-12-26T21:57:20.127Z,3.39
2018-12-26T21:59:50.908Z,3.43
2018-12-26T22:02:22.620Z,3.40
2018-12-26T22:04:53.241Z,3.40
2018-12-26T22:07:23.736Z,3.46
2018-12-26T22:09:54.424Z,3.40
2018-12-26T22:12:25.086Z,3.27
2018-12-26T22:14:55.732Z,3.31
2018-12-26T22:17:26.206Z,3.27
2018-12-26T22:19:56.755Z,3.34
2018-12-26T22:22:27.229Z,3.27
2018-12-26T22:24:57.678Z,3.22
2018-12-26T22:27:28.178Z,3.22
2018-12-26T22:29:58.619Z,3.28
2018-12-26T22:32:30.725Z,3.24
2018-12-26T22:35:01.324Z,3.27
2018-12-26T22:37:32.184Z,3.27
2018-12-26T22:40:02.592Z,3.33
2018-12-26T22:42:33.249Z,3.31
2018-12-26T22:45:03.960Z,3.31
2018-12-26T22:47:34.461Z,3.34
2018-12-26T22:50:05.626Z,3.26
2018-12-26T22:52:36.121Z,3.27
2018-12-26T22:55:06.933Z,3.25
2018-12-26T22:57:37.627Z,3.26
2018-12-26T23:00:12.499Z,3.24
2018-12-26T23:02:43.585Z,3.29
2018-12-26T23:05:14.065Z,3.68
2018-12-26T23:07:44.537Z,3.57
2018-12-26T23:10:14.898Z,3.57
2018-12-26T23:12:45.301Z,3.58
2018-12-26T23:15:16.027Z,3.49
2018-12-26T23:17:46.438Z,3.57
2018-12-26T23:20:17.451Z,3.50
2018-12-26T23:22:48.002Z,3.50
2018-12-26T23:25:18.454Z,3.53
2018-12-26T23:27:48.708Z,3.57
2018-12-26T23:30:19.068Z,3.52
2018-12-26T23:32:49.551Z,3.51
2018-12-26T23:35:20.560Z,3.53
2018-12-26T23:37:51.140Z,3.54
2018-12-26T23:40:22.148Z,3.52
2018-12-26T23:42:52.566Z,3.43
2018-12-26T23:45:23.193Z,3.43
2018-12-26T23:47:53.554Z,3.43
2018-12-26T23:50:24.220Z,3.42
2018-12-26T23:52:54.603Z,3.49
2018-12-26T23:55:25.140Z,3.46
2018-12-26T23:57:55.369Z,3.41
